This is the latest recevied weather packets stored in our database for station/object WP3XM. If no packets are shown the sender has not sent any weather packets the latest 10 day(s).
| Time | Temp. | Humidity | Pressure | Rain* | Wind** | Luminosity | Snow |
|---|---|---|---|---|---|---|---|
| 1777487275 | 28.33° C | 72% | 1014.7 hPa | 0 mm | - | 195 W/m² | - |
| 1777486972 | 28.89° C | 73% | 1014.7 hPa | 0 mm | - | 254 W/m² | - |
| 1777486668 | 28.89° C | 72% | 1014.7 hPa | 0 mm | - | 286 W/m² | - |
| 1777486366 | 28.89° C | 72% | 1014.9 hPa | 0 mm | - | 320 W/m² | - |
| 1777486064 | 28.89° C | 72% | 1015 hPa | 0 mm | - | 406 W/m² | - |
| 1777485759 | 29.44° C | 69% | 1015 hPa | 0 mm | - | 409 W/m² | - |
| 1777485455 | 30° C | 68% | 1015 hPa | 0 mm | - | 440 W/m² | - |
| 1777485151 | 30° C | 69% | 1015.1 hPa | 0 mm | - | 1030 W/m² | - |
| 1777484848 | 29.44° C | 69% | 1015 hPa | 0 mm | - | 1081 W/m² | - |
| 1777484545 | 29.44° C | 70% | 1015.2 hPa | 0 mm | - | 474 W/m² | - |
| 1777484242 | 28.89° C | 70% | 1015.3 hPa | 0 mm | - | 468 W/m² | - |
| 1777483938 | 28.89° C | 72% | 1015.3 hPa | 0 mm | - | 458 W/m² | - |
| 1777483634 | 28.89° C | 72% | 1015.5 hPa | 0 mm | - | 554 W/m² | - |
| 1777483330 | 29.44° C | 71% | 1015.7 hPa | 0 mm | - | 1182 W/m² | - |
| 1777483026 | 29.44° C | 70% | 1015.9 hPa | 0 mm | - | 681 W/m² | - |
| 1777482723 | 29.44° C | 71% | 1015.6 hPa | 0 mm | - | 438 W/m² | - |
| 1777482418 | 29.44° C | 70% | 1015.9 hPa | 0 mm | - | 433 W/m² | - |
| 1777482116 | 29.44° C | 69% | 1015.8 hPa | 0 mm | - | 668 W/m² | - |
| 1777481814 | 29.44° C | 71% | 1016 hPa | 0 mm | - | 589 W/m² | - |
| 1777481511 | 30° C | 69% | 1015.9 hPa | 0 mm | - | 966 W/m² | - |
| 1777481207 | 29.44° C | 70% | 1016 hPa | 0 mm | - | 1143 W/m² | - |
| 1777480904 | 28.89° C | 72% | 1016.1 hPa | 0 mm | - | 1117 W/m² | - |
| 1777480600 | 29.44° C | 70% | 1016.2 hPa | 0 mm | - | 634 W/m² | - |
| 1777480297 | 28.89° C | 71% | 1016.1 hPa | 0 mm | - | 1355 W/m² | - |
| 1777479993 | 28.89° C | 72% | 1016.4 hPa | 0 mm | - | 657 W/m² | - |
* Rain latest hour (hover to see other rain measurements)
** Current wind speed in m/s (hover to see current wind gust speed)